Map

Track Data

SID SEASON NUMBER BASIN SUBBASIN NAME ISO_TIME NATURE LAT LON WMO_WIND WMO_PRES WMO_AGENCY TRACK_TYPE DIST2LAND LANDFALL IFLAG USA_AGENCY USA_ATCF_ID USA_LAT USA_LON USA_RECORD USA_STATUS USA_WIND USA_PRES USA_SSHS USA_R34_NE USA_R34_SE USA_R34_SW USA_R34_NW USA_R50_NE USA_R50_SE USA_R50_SW USA_R50_NW USA_R64_NE USA_R64_SE USA_R64_SW USA_R64_NW USA_POCI USA_ROCI USA_RMW USA_EYE TOKYO_LAT TOKYO_LON TOKYO_GRADE TOKYO_WIND TOKYO_PRES TOKYO_R50_DIR TOKYO_R50_LONG TOKYO_R50_SHORT TOKYO_R30_DIR TOKYO_R30_LONG TOKYO_R30_SHORT TOKYO_LAND CMA_LAT CMA_LON CMA_CAT CMA_WIND CMA_PRES HKO_LAT HKO_LON HKO_CAT HKO_WIND HKO_PRES NEWDELHI_LAT NEWDELHI_LON NEWDELHI_GRADE NEWDELHI_WIND NEWDELHI_PRES NEWDELHI_CI NEWDELHI_DP NEWDELHI_POCI REUNION_LAT REUNION_LON REUNION_TYPE REUNION_WIND REUNION_PRES REUNION_TNUM REUNION_CI REUNION_RMW REUNION_R34_NE REUNION_R34_SE REUNION_R34_SW REUNION_R34_NW REUNION_R50_NE REUNION_R50_SE REUNION_R50_SW REUNION_R50_NW REUNION_R64_NE REUNION_R64_SE REUNION_R64_SW REUNION_R64_NW BOM_LAT BOM_LON BOM_TYPE BOM_WIND BOM_PRES BOM_TNUM BOM_CI BOM_RMW BOM_R34_NE BOM_R34_SE BOM_R34_SW BOM_R34_NW BOM_R50_NE BOM_R50_SE BOM_R50_SW BOM_R50_NW BOM_R64_NE BOM_R64_SE BOM_R64_SW BOM_R64_NW BOM_ROCI BOM_POCI BOM_EYE BOM_POS_METHOD BOM_PRES_METHOD NADI_LAT NADI_LON NADI_CAT NADI_WIND NADI_PRES WELLINGTON_LAT WELLINGTON_LON WELLINGTON_WIND WELLINGTON_PRES DS824_LAT DS824_LON DS824_STAGE DS824_WIND DS824_PRES TD9636_LAT TD9636_LON TD9636_STAGE TD9636_WIND TD9636_PRES TD9635_LAT TD9635_LON TD9635_WIND TD9635_PRES TD9635_ROCI NEUMANN_LAT NEUMANN_LON NEUMANN_CLASS NEUMANN_WIND NEUMANN_PRES MLC_LAT MLC_LON MLC_CLASS MLC_WIND MLC_PRES USA_GUST BOM_GUST BOM_GUST_PER REUNION_GUST REUNION_GUST_PER USA_SEAHGT USA_SEARAD_NE USA_SEARAD_SE USA_SEARAD_SW USA_SEARAD_NW STORM_SPEED STORM_DIR
1990282N15250 1990 100 EP MM SIMON 1990-10-09 00:00:00 TS 14.5000 -110.000 25 1010 hurdat_epa main 763 763 O_____________ hurdat_epa EP221990 14.5000 -110.000 TD 25 1010 -1 13 279
1990282N15250 1990 100 EP MM SIMON 1990-10-09 03:00:00 TS 14.6003 -110.645 main 801 801 P_____________ EP221990 14.6003 -110.645 TD 27 1009 -1 13 279
1990282N15250 1990 100 EP MM SIMON 1990-10-09 06:00:00 TS 14.7000 -111.300 30 1009 hurdat_epa main 847 847 O_____________ hurdat_epa EP221990 14.7000 -111.300 TD 30 1009 -1 13 279
1990282N15250 1990 100 EP MM SIMON 1990-10-09 09:00:00 TS 14.7999 -111.965 main 898 898 P_____________ EP221990 14.7999 -111.965 TD 30 1008 -1 13 279
1990282N15250 1990 100 EP MM SIMON 1990-10-09 12:00:00 TS 14.9000 -112.600 30 1008 hurdat_epa main 935 934 O_____________ hurdat_epa EP221990 14.9000 -112.600 TD 30 1008 -1 12 279
1990282N15250 1990 100 EP MM SIMON 1990-10-09 15:00:00 TS 14.9923 -113.173 main 945 945 P_____________ EP221990 14.9923 -113.173 TD 30 1007 -1 11 281
1990282N15250 1990 100 EP MM SIMON 1990-10-09 18:00:00 TS 15.1000 -113.700 30 1007 hurdat_epa main 955 953 O_____________ hurdat_epa EP221990 15.1000 -113.700 TD 30 1007 -1 10 284
1990282N15250 1990 100 EP MM SIMON 1990-10-09 21:00:00 TS 15.2423 -114.208 main 967 957 P_____________ EP221990 15.2423 -114.208 TD 32 1006 -1 10 287
1990282N15250 1990 100 EP MM SIMON 1990-10-10 00:00:00 TS 15.4000 -114.700 35 1005 hurdat_epa main 973 973 O_____________ hurdat_epa EP221990 15.4000 -114.700 TS 35 1005 0 10 287
1990282N15250 1990 100 EP MM SIMON 1990-10-10 03:00:00 TS 15.5349 -115.208 main 991 987 P_____________ EP221990 15.5349 -115.208 TS 37 1004 0 10 287
1990282N15250 1990 100 EP MM SIMON 1990-10-10 06:00:00 TS 15.7000 -115.700 40 1003 hurdat_epa main 1002 1000 O_____________ hurdat_epa EP221990 15.7000 -115.700 TS 40 1003 0 10 294
1990282N15250 1990 100 EP MM SIMON 1990-10-10 09:00:00 TS 15.9424 -116.157 main 1017 1008 P_____________ EP221990 15.9424 -116.157 TS 40 1002 0 10 300
1990282N15250 1990 100 EP MM SIMON 1990-10-10 12:00:00 TS 16.2000 -116.600 40 1002 hurdat_epa main 1019 1018 O_____________ hurdat_epa EP221990 16.2000 -116.600 TS 40 1002 0 10 298
1990282N15250 1990 100 EP MM SIMON 1990-10-10 15:00:00 TS 16.4074 -117.050 main 1039 1039 P_____________ EP221990 16.4074 -117.050 TS 42 1001 0 10 295
1990282N15250 1990 100 EP MM SIMON 1990-10-10 18:00:00 TS 16.6000 -117.500 45 1000 hurdat_epa main 1054 1054 O_____________ hurdat_epa EP221990 16.6000 -117.500 TS 45 1000 0 10 295
1990282N15250 1990 100 EP MM SIMON 1990-10-10 21:00:00 TS 16.8074 -117.950 main 1075 1065 P_____________ EP221990 16.8074 -117.950 TS 47 999 0 10 295
1990282N15250 1990 100 EP MM SIMON 1990-10-11 00:00:00 TS 17.0000 -118.400 50 998 hurdat_epa main 1081 1081 O_____________ hurdat_epa EP221990 17.0000 -118.400 TS 50 998 0 9 291
1990282N15250 1990 100 EP MM SIMON 1990-10-11 03:00:00 TS 17.1350 -118.865 main 1104 1095 P_____________ EP221990 17.1350 -118.865 TS 52 996 0 9 289
1990282N15250 1990 100 EP MM SIMON 1990-10-11 06:00:00 TS 17.3000 -119.300 55 994 hurdat_epa main 1114 1110 O_____________ hurdat_epa EP221990 17.3000 -119.300 TS 55 994 0 9 300
1990282N15250 1990 100 EP MM SIMON 1990-10-11 09:00:00 TS 17.5774 -119.665 main 1118 1116 P_____________ EP221990 17.5774 -119.665 TS 57 992 0 9 312
1990282N15250 1990 100 EP MM SIMON 1990-10-11 12:00:00 TS 17.9000 -120.000 60 991 hurdat_epa main 1116 1115 O_____________ hurdat_epa EP221990 17.9000 -120.000 TS 60 991 0 9 314
1990282N15250 1990 100 EP MM SIMON 1990-10-11 15:00:00 TS 18.2074 -120.350 main 1123 1116 P_____________ EP221990 18.2074 -120.350 TS 60 990 0 9 312
1990282N15250 1990 100 EP MM SIMON 1990-10-11 18:00:00 TS 18.5000 -120.700 60 990 hurdat_epa main 1125 1125 O_____________ hurdat_epa EP221990 18.5000 -120.700 TS 60 990 0 9 310
1990282N15250 1990 100 EP MM SIMON 1990-10-11 21:00:00 TS 18.7573 -121.035 main 1128 1128 P_____________ EP221990 18.7573 -121.035 TS 60 990 0 8 307
1990282N15250 1990 100 EP MM SIMON 1990-10-12 00:00:00 TS 19.0000 -121.400 60 990 hurdat_epa main 1148 1148 O_____________ hurdat_epa EP221990 19.0000 -121.400 TS 60 990 0 9 303
1990282N15250 1990 100 EP MM SIMON 1990-10-12 03:00:00 TS 19.2575 -121.835 main 1161 1161 P_____________ EP221990 19.2575 -121.835 TS 60 990 0 10 300
1990282N15250 1990 100 EP MM SIMON 1990-10-12 06:00:00 TS 19.5000 -122.300 60 991 hurdat_epa main 1178 1177 O_____________ hurdat_epa EP221990 19.5000 -122.300 TS 60 991 0 10 298
1990282N15250 1990 100 EP MM SIMON 1990-10-12 09:00:00 TS 19.7073 -122.743 main 1188 1186 P_____________ EP221990 19.7073 -122.743 TS 57 992 0 9 295
1990282N15250 1990 100 EP MM SIMON 1990-10-12 12:00:00 TS 19.9000 -123.200 55 994 hurdat_epa main 1205 1204 O_____________ hurdat_epa EP221990 19.9000 -123.200 TS 55 994 0 10 294
1990282N15250 1990 100 EP MM SIMON 1990-10-12 15:00:00 TS 20.0999 -123.693 main 1225 1224 P_____________ EP221990 20.0999 -123.693 TS 52 995 0 10 293
1990282N15250 1990 100 EP MM SIMON 1990-10-12 18:00:00 TS 20.3000 -124.200 50 997 hurdat_epa main 1246 1246 O_____________ hurdat_epa EP221990 20.3000 -124.200 TS 50 997 0 10 293
1990282N15250 1990 100 EP MM SIMON 1990-10-12 21:00:00 TS 20.5073 -124.693 main 1270 1270 P_____________ EP221990 20.5073 -124.693 TS 47 998 0 10 293
1990282N15250 1990 100 EP MM SIMON 1990-10-13 00:00:00 TS 20.7000 -125.200 45 1000 hurdat_epa main 1295 1295 O_____________ hurdat_epa EP221990 20.7000 -125.200 TS 45 1000 0 11 290
1990282N15250 1990 100 EP MM SIMON 1990-10-13 03:00:00 TS 20.8575 -125.750 main 1330 1330 P_____________ EP221990 20.8575 -125.750 TS 42 1001 0 11 286
1990282N15250 1990 100 EP MM SIMON 1990-10-13 06:00:00 TS 21.0000 -126.300 40 1003 hurdat_epa main 1366 1366 O_____________ hurdat_epa EP221990 21.0000 -126.300 TS 40 1003 0 10 287
1990282N15250 1990 100 EP MM SIMON 1990-10-13 09:00:00 TS 21.1573 -126.808 main 1396 1396 P_____________ EP221990 21.1573 -126.808 TS 37 1004 0 10 288
1990282N15250 1990 100 EP MM SIMON 1990-10-13 12:00:00 TS 21.3000 -127.300 35 1005 hurdat_epa main 1433 1433 O_____________ hurdat_epa EP221990 21.3000 -127.300 TS 35 1005 0 10 286
1990282N15250 1990 100 EP MM SIMON 1990-10-13 15:00:00 TS 21.4223 -127.800 main 1471 1471 P_____________ EP221990 21.4223 -127.800 TS 32 1006 -1 10 282
1990282N15250 1990 100 EP MM SIMON 1990-10-13 18:00:00 TS 21.5000 -128.300 30 1007 hurdat_epa main 1510 1510 O_____________ hurdat_epa EP221990 21.5000 -128.300 TD 30 1007 -1 9 276
1990282N15250 1990 100 EP MM SIMON 1990-10-13 21:00:00 TS 21.5149 -128.800 main 1555 1555 P_____________ EP221990 21.5149 -128.800 TD 30 1008 -1 9 270
1990282N15250 1990 100 EP MM SIMON 1990-10-14 00:00:00 TS 21.5000 -129.300 30 1009 hurdat_epa main 1600 1600 O_____________ hurdat_epa EP221990 21.5000 -129.300 TD 30 1009 -1 9 269
1990282N15250 1990 100 EP MM SIMON 1990-10-14 03:00:00 TS 21.4923 -129.800 main 1646 1646 P_____________ EP221990 21.4923 -129.800 TD 30 1009 -1 9 270
1990282N15250 1990 100 EP MM SIMON 1990-10-14 06:00:00 TS 21.5000 -130.300 30 1010 hurdat_epa main 1692 1692 O_____________ hurdat_epa EP221990 21.5000 -130.300 TD 30 1010 -1 9 272
1990282N15250 1990 100 EP MM SIMON 1990-10-14 09:00:00 TS 21.5274 -130.808 main 1738 1738 P_____________ EP221990 21.5274 -130.808 TD 27 1010 -1 9 276
1990282N15250 1990 100 EP MM SIMON 1990-10-14 12:00:00 TS 21.6000 -131.300 25 1011 hurdat_epa main 1776 1776 O_____________ hurdat_epa EP221990 21.6000 -131.300 TD 25 1011 -1 9 283
1990282N15250 1990 100 EP MM SIMON 1990-10-14 15:00:00 TS 21.7327 -131.760 main 1796 1787 P_____________ EP221990 21.7327 -131.760 TD 25 1011 -1 9 290
1990282N15250 1990 100 EP MM SIMON 1990-10-14 18:00:00 TS 21.9000 -132.200 25 1012 hurdat_epa main 1802 O_____________ hurdat_epa EP221990 21.9000 -132.200 TD 25 1012 -1 9 292

About IBTrACS Database

This database is a web-friendly format of International Best Track Archive for Climate Stewardship (IBTrACS), a global best track data archive curated by NOAA dating back to 1842.

Updated: 2021-10-27